createdAt,value
2018-12-31T00:00:32.802Z,14.71
2018-12-31T00:01:32.791Z,14.68
2018-12-31T00:02:32.783Z,14.70
2018-12-31T00:03:32.769Z,14.74
2018-12-31T00:04:32.764Z,14.77
2018-12-31T00:05:32.961Z,14.70
2018-12-31T00:06:32.744Z,14.58
2018-12-31T00:07:32.726Z,14.62
2018-12-31T00:08:32.717Z,14.62
2018-12-31T00:09:32.707Z,14.63
2018-12-31T00:10:32.697Z,14.58
2018-12-31T00:11:32.786Z,14.61
2018-12-31T00:12:32.676Z,14.66
2018-12-31T00:13:32.678Z,14.59
2018-12-31T00:14:32.700Z,14.63
2018-12-31T00:15:34.197Z,14.70
2018-12-31T00:16:32.631Z,14.58
2018-12-31T00:17:32.722Z,14.55
2018-12-31T00:18:32.613Z,14.63
2018-12-31T00:19:32.597Z,14.59
2018-12-31T00:20:32.587Z,14.59
2018-12-31T00:21:32.576Z,14.61
2018-12-31T00:22:32.565Z,14.59
2018-12-31T00:23:32.715Z,14.62
2018-12-31T00:24:32.543Z,14.58
2018-12-31T00:25:32.532Z,14.66
2018-12-31T00:26:32.522Z,14.58
2018-12-31T00:27:32.513Z,14.55
2018-12-31T00:28:32.501Z,14.66
2018-12-31T00:29:32.628Z,14.51
2018-12-31T00:30:32.479Z,14.48
2018-12-31T00:31:32.468Z,14.59
2018-12-31T00:32:32.470Z,14.59
2018-12-31T00:33:32.447Z,14.55
2018-12-31T00:34:32.437Z,14.56
2018-12-31T00:35:32.601Z,14.58
2018-12-31T00:36:41.169Z,14.55
2018-12-31T00:37:41.192Z,14.61
2018-12-31T00:38:32.392Z,14.56
2018-12-31T00:39:32.386Z,14.51
2018-12-31T00:40:32.371Z,14.62
2018-12-31T00:41:32.520Z,14.51
2018-12-31T00:42:32.352Z,14.58
2018-12-31T00:43:32.338Z,14.53
2018-12-31T00:44:32.328Z,14.51
2018-12-31T00:45:42.274Z,14.55
2018-12-31T00:46:32.306Z,14.51
2018-12-31T00:47:32.395Z,14.48
2018-12-31T00:48:32.286Z,14.41
2018-12-31T00:49:32.295Z,14.44
2018-12-31T00:50:32.263Z,14.41
2018-12-31T00:51:32.262Z,14.41
2018-12-31T00:52:32.249Z,14.45
2018-12-31T00:53:32.328Z,14.44
2018-12-31T00:54:32.222Z,14.43
2018-12-31T00:55:32.211Z,14.49
2018-12-31T00:56:32.204Z,14.41
2018-12-31T00:57:32.187Z,14.45
2018-12-31T00:58:32.178Z,14.36
2018-12-31T00:59:32.333Z,14.37
2018-12-31T01:00:32.157Z,14.36
2018-12-31T01:01:32.143Z,14.49
2018-12-31T01:02:32.132Z,14.40
2018-12-31T01:03:32.122Z,14.38
2018-12-31T01:04:32.112Z,14.31
2018-12-31T01:05:32.209Z,14.33
2018-12-31T01:06:32.091Z,14.37
2018-12-31T01:07:32.081Z,14.31
2018-12-31T01:08:32.073Z,14.34
2018-12-31T01:09:32.056Z,14.33
2018-12-31T01:10:32.046Z,14.33
2018-12-31T01:11:32.374Z,14.31
2018-12-31T01:12:32.026Z,14.34
2018-12-31T01:13:32.014Z,14.31
2018-12-31T01:14:32.003Z,14.33
2018-12-31T01:15:32.004Z,14.34
2018-12-31T01:16:31.981Z,14.28
2018-12-31T01:17:32.066Z,14.26
2018-12-31T01:18:31.962Z,14.33
2018-12-31T01:19:31.950Z,14.25
2018-12-31T01:20:31.940Z,14.28
2018-12-31T01:21:31.949Z,14.31
2018-12-31T01:22:31.918Z,14.23
2018-12-31T01:23:32.000Z,14.33
2018-12-31T01:24:31.896Z,14.31
2018-12-31T01:25:31.885Z,14.22
2018-12-31T01:26:31.874Z,14.28
2018-12-31T01:27:31.864Z,14.22
2018-12-31T01:28:31.853Z,14.31
2018-12-31T01:29:31.956Z,14.25
2018-12-31T01:30:31.831Z,14.26
2018-12-31T01:31:31.819Z,14.22
2018-12-31T01:32:31.820Z,14.25
2018-12-31T01:33:31.798Z,14.25
2018-12-31T01:34:31.791Z,14.26
2018-12-31T01:35:31.964Z,14.30
2018-12-31T01:36:31.767Z,14.25
2018-12-31T01:37:31.760Z,14.25
2018-12-31T01:38:31.745Z,14.25
2018-12-31T01:39:31.733Z,14.20
2018-12-31T01:40:31.726Z,14.28
2018-12-31T01:41:31.818Z,14.30
2018-12-31T01:42:31.702Z,14.26
2018-12-31T01:43:31.689Z,14.25
2018-12-31T01:44:31.679Z,14.19
2018-12-31T01:45:31.670Z,14.22
2018-12-31T01:46:31.661Z,14.30
2018-12-31T01:47:31.956Z,14.23
2018-12-31T01:48:31.639Z,14.28
2018-12-31T01:49:31.628Z,14.31
2018-12-31T01:50:31.616Z,14.19
2018-12-31T01:51:31.603Z,14.18
2018-12-31T01:52:31.600Z,14.22
2018-12-31T01:53:31.680Z,14.18
2018-12-31T01:54:31.570Z,14.12
2018-12-31T01:55:31.563Z,14.13
2018-12-31T01:56:31.549Z,14.08
2018-12-31T01:57:31.543Z,14.25
2018-12-31T01:58:31.535Z,14.23
2018-12-31T01:59:31.617Z,14.11
2018-12-31T02:00:31.718Z,14.04
2018-12-31T02:01:31.498Z,14.18
2018-12-31T02:02:31.486Z,14.25
2018-12-31T02:03:31.474Z,14.23
2018-12-31T02:04:31.481Z,14.05
2018-12-31T02:05:31.626Z,14.16
2018-12-31T02:06:31.444Z,14.23
2018-12-31T02:07:31.432Z,14.18
2018-12-31T02:08:31.421Z,14.15
2018-12-31T02:09:31.408Z,14.13
2018-12-31T02:10:31.401Z,14.13
2018-12-31T02:11:31.486Z,14.19
2018-12-31T02:12:31.378Z,14.19
2018-12-31T02:13:31.367Z,14.13
2018-12-31T02:14:31.355Z,14.18
2018-12-31T02:15:31.346Z,14.18
2018-12-31T02:16:31.335Z,14.07
2018-12-31T02:17:31.424Z,14.15
2018-12-31T02:18:31.313Z,14.11
2018-12-31T02:19:31.303Z,14.12
2018-12-31T02:20:31.287Z,14.08
2018-12-31T02:21:31.283Z,14.11
2018-12-31T02:22:31.273Z,14.05
2018-12-31T02:23:31.416Z,14.08
2018-12-31T02:24:31.246Z,14.11
2018-12-31T02:25:31.234Z,14.11
2018-12-31T02:26:31.226Z,14.13
2018-12-31T02:27:31.215Z,14.08
2018-12-31T02:28:31.205Z,14.11
2018-12-31T02:29:31.355Z,14.07
2018-12-31T02:30:31.182Z,14.13
2018-12-31T02:31:31.168Z,14.13
2018-12-31T02:32:31.169Z,14.12
2018-12-31T02:33:31.155Z,14.11
2018-12-31T02:34:31.142Z,14.11
2018-12-31T02:35:31.224Z,14.05
2018-12-31T02:36:31.123Z,14.07
2018-12-31T02:37:31.110Z,14.11
2018-12-31T02:38:31.097Z,14.12
2018-12-31T02:39:31.085Z,14.11
2018-12-31T02:40:31.071Z,14.07
2018-12-31T02:41:31.373Z,14.07
2018-12-31T02:42:31.053Z,14.08
2018-12-31T02:43:31.046Z,14.05
2018-12-31T02:44:31.033Z,14.11
2018-12-31T02:45:31.017Z,14.04
2018-12-31T02:46:31.025Z,14.01
2018-12-31T02:47:31.161Z,14.00
2018-12-31T02:48:30.987Z,14.04
2018-12-31T02:49:30.978Z,14.04
2018-12-31T02:50:30.976Z,14.04
2018-12-31T02:51:30.959Z,14.04
2018-12-31T02:52:30.948Z,14.00
2018-12-31T02:53:31.033Z,14.00
2018-12-31T02:54:30.923Z,14.01
2018-12-31T02:55:30.917Z,13.98
2018-12-31T02:56:30.903Z,13.95
2018-12-31T02:57:30.895Z,13.87
2018-12-31T02:58:30.882Z,13.97
2018-12-31T02:59:30.965Z,13.87
2018-12-31T03:00:30.856Z,13.91
2018-12-31T03:01:30.847Z,13.98
2018-12-31T03:02:39.576Z,13.87
2018-12-31T03:03:39.576Z,13.86
2018-12-31T03:04:30.818Z,13.93
2018-12-31T03:05:31.002Z,13.89
2018-12-31T03:06:30.804Z,13.85
2018-12-31T03:07:30.783Z,13.94
2018-12-31T03:08:30.772Z,13.87
2018-12-31T03:09:30.764Z,13.86
2018-12-31T03:10:30.755Z,13.89
2018-12-31T03:11:30.899Z,13.78
2018-12-31T03:12:30.731Z,13.87
2018-12-31T03:13:30.746Z,13.91
2018-12-31T03:14:30.709Z,13.87
2018-12-31T03:15:30.702Z,13.85
2018-12-31T03:16:30.685Z,13.87
2018-12-31T03:17:30.851Z,13.82
2018-12-31T03:18:30.665Z,13.82
2018-12-31T03:19:30.655Z,13.82
2018-12-31T03:20:30.643Z,13.89
2018-12-31T03:21:30.676Z,13.86
2018-12-31T03:22:30.621Z,13.89
2018-12-31T03:23:30.843Z,13.91
2018-12-31T03:24:30.600Z,13.91
2018-12-31T03:25:30.603Z,13.94
2018-12-31T03:26:30.579Z,13.86
2018-12-31T03:27:30.573Z,14.01
2018-12-31T03:28:30.558Z,13.95
2018-12-31T03:29:30.642Z,13.86
2018-12-31T03:30:30.537Z,13.97
2018-12-31T03:31:30.528Z,13.89
2018-12-31T03:32:30.526Z,13.94
2018-12-31T03:33:30.505Z,13.95
2018-12-31T03:34:30.493Z,13.94
2018-12-31T03:35:30.642Z,13.95
2018-12-31T03:36:30.469Z,13.98
2018-12-31T03:37:30.457Z,13.98
2018-12-31T03:38:30.452Z,13.98
2018-12-31T03:39:30.447Z,13.97
2018-12-31T03:40:30.425Z,13.97
2018-12-31T03:41:30.526Z,13.98
2018-12-31T03:42:30.407Z,13.97
2018-12-31T03:43:30.395Z,13.98
2018-12-31T03:44:30.386Z,13.95
2018-12-31T03:45:30.378Z,13.94
2018-12-31T03:46:30.363Z,13.94
2018-12-31T03:47:30.622Z,13.85
2018-12-31T03:48:30.342Z,13.85
2018-12-31T03:49:30.330Z,13.89
2018-12-31T03:50:30.320Z,14.01
2018-12-31T03:51:30.309Z,13.93
2018-12-31T03:52:30.296Z,13.97
2018-12-31T03:53:30.380Z,13.94
2018-12-31T03:54:30.277Z,13.95
2018-12-31T03:55:30.268Z,13.94
2018-12-31T03:56:30.252Z,13.91
2018-12-31T03:57:30.256Z,13.95
2018-12-31T03:58:30.234Z,13.97
2018-12-31T03:59:30.314Z,13.94
2018-12-31T04:00:30.213Z,13.97
2018-12-31T04:01:30.224Z,13.95
2018-12-31T04:02:30.187Z,13.95
2018-12-31T04:03:30.187Z,13.94
2018-12-31T04:04:30.170Z,13.97
2018-12-31T04:05:30.333Z,14.00
2018-12-31T04:06:30.155Z,13.97
2018-12-31T04:07:30.143Z,13.98
2018-12-31T04:08:30.126Z,14.00
2018-12-31T04:09:30.116Z,14.00
2018-12-31T04:10:30.111Z,14.01
2018-12-31T04:11:30.261Z,13.98
2018-12-31T04:12:30.083Z,14.03
2018-12-31T04:13:30.078Z,13.97
2018-12-31T04:14:30.069Z,14.00
2018-12-31T04:15:30.054Z,14.01
2018-12-31T04:16:30.041Z,14.00
2018-12-31T04:17:30.134Z,14.07
2018-12-31T04:18:30.028Z,13.98
2018-12-31T04:19:30.007Z,13.97
2018-12-31T04:20:29.996Z,13.95
2018-12-31T04:21:29.995Z,14.03
2018-12-31T04:22:29.978Z,14.00
2018-12-31T04:23:30.071Z,13.98
2018-12-31T04:24:29.955Z,13.97
2018-12-31T04:25:29.943Z,13.98
2018-12-31T04:26:29.931Z,14.01
2018-12-31T04:27:29.921Z,14.00
2018-12-31T04:28:29.912Z,14.04
2018-12-31T04:29:30.100Z,14.08
2018-12-31T04:30:29.892Z,14.04
2018-12-31T04:31:29.880Z,14.04
2018-12-31T04:32:29.878Z,14.08
2018-12-31T04:33:29.857Z,14.07
2018-12-31T04:34:29.846Z,14.08
2018-12-31T04:35:29.939Z,14.07
2018-12-31T04:36:29.921Z,14.07
2018-12-31T04:37:29.814Z,14.08
2018-12-31T04:38:29.824Z,14.11
2018-12-31T04:39:29.792Z,14.03
2018-12-31T04:40:29.782Z,14.07
2018-12-31T04:41:29.868Z,14.08
2018-12-31T04:42:29.759Z,14.07
2018-12-31T04:43:29.748Z,14.13
2018-12-31T04:44:29.743Z,14.11
2018-12-31T04:45:29.773Z,14.16
2018-12-31T04:46:29.717Z,14.11
2018-12-31T04:47:29.951Z,14.13
2018-12-31T04:48:29.699Z,14.18
2018-12-31T04:49:29.683Z,14.13
2018-12-31T04:50:29.678Z,14.16
2018-12-31T04:51:29.662Z,14.08
2018-12-31T04:52:29.653Z,14.11
2018-12-31T04:53:29.823Z,14.22
2018-12-31T04:54:29.632Z,14.08
2018-12-31T04:55:29.619Z,14.16
2018-12-31T04:56:29.609Z,14.18
2018-12-31T04:57:29.596Z,14.16
2018-12-31T04:58:29.586Z,14.18
2018-12-31T04:59:29.673Z,14.13
2018-12-31T05:00:29.565Z,14.16
2018-12-31T05:01:29.556Z,14.20
2018-12-31T05:02:29.620Z,14.19
2018-12-31T05:03:29.533Z,14.18
2018-12-31T05:04:29.525Z,14.16
2018-12-31T05:05:29.815Z,14.08
2018-12-31T05:06:29.501Z,14.12
2018-12-31T05:07:29.492Z,14.11
2018-12-31T05:08:29.478Z,14.18
2018-12-31T05:09:29.469Z,14.13
2018-12-31T05:10:29.457Z,14.16
2018-12-31T05:11:29.543Z,14.22
2018-12-31T05:12:29.435Z,14.22
2018-12-31T05:13:29.424Z,14.18
2018-12-31T05:14:29.418Z,14.11
2018-12-31T05:15:29.421Z,14.26
2018-12-31T05:16:29.395Z,14.05
2018-12-31T05:17:29.655Z,14.15
2018-12-31T05:18:38.110Z,14.08
2018-12-31T05:19:39.099Z,14.16
2018-12-31T05:20:29.353Z,14.19
2018-12-31T05:21:29.340Z,14.18
2018-12-31T05:22:29.329Z,14.22
2018-12-31T05:23:29.412Z,14.16
2018-12-31T05:24:29.307Z,14.15
2018-12-31T05:25:29.303Z,14.12
2018-12-31T05:26:29.286Z,14.18
2018-12-31T05:27:29.307Z,14.18
2018-12-31T05:28:29.278Z,14.22
2018-12-31T05:29:29.363Z,14.18
2018-12-31T05:30:29.249Z,14.15
2018-12-31T05:31:29.231Z,14.13
2018-12-31T05:32:29.224Z,14.20
2018-12-31T05:33:29.213Z,14.19
2018-12-31T05:34:29.200Z,14.15
2018-12-31T05:35:29.443Z,14.23
2018-12-31T05:36:29.180Z,14.15
2018-12-31T05:37:29.165Z,14.16
2018-12-31T05:38:29.161Z,14.19
2018-12-31T05:39:29.151Z,14.20
2018-12-31T05:40:29.134Z,14.16
2018-12-31T05:41:29.439Z,14.13
2018-12-31T05:42:29.113Z,14.15
2018-12-31T05:43:29.103Z,14.30
2018-12-31T05:44:29.092Z,14.18
2018-12-31T05:45:29.078Z,14.15
2018-12-31T05:46:29.085Z,14.13
2018-12-31T05:47:29.180Z,14.16
2018-12-31T05:48:29.048Z,14.23
2018-12-31T05:49:29.038Z,14.19
2018-12-31T05:50:29.025Z,14.12
2018-12-31T05:51:29.025Z,14.26
2018-12-31T05:52:29.007Z,14.18
2018-12-31T05:53:29.246Z,14.07
2018-12-31T05:54:28.984Z,14.20
2018-12-31T05:55:28.973Z,14.22
2018-12-31T05:56:28.972Z,14.25
2018-12-31T05:57:28.950Z,14.19
2018-12-31T05:58:28.939Z,14.23
2018-12-31T05:59:29.034Z,14.23
2018-12-31T06:00:28.918Z,14.23
2018-12-31T06:01:28.908Z,14.34
2018-12-31T06:02:28.902Z,14.30
2018-12-31T06:03:28.885Z,14.26
2018-12-31T06:04:28.874Z,14.25
2018-12-31T06:05:29.137Z,14.37
2018-12-31T06:06:28.871Z,14.28
2018-12-31T06:07:28.846Z,14.37
2018-12-31T06:08:28.832Z,14.38
2018-12-31T06:09:28.824Z,14.38
2018-12-31T06:10:28.810Z,14.33
2018-12-31T06:11:28.906Z,14.33
2018-12-31T06:12:28.790Z,14.36
2018-12-31T06:13:28.777Z,14.36
2018-12-31T06:14:28.767Z,14.34
2018-12-31T06:15:28.801Z,14.41
2018-12-31T06:16:28.743Z,14.40
2018-12-31T06:17:28.941Z,14.41
2018-12-31T06:18:28.725Z,14.41
2018-12-31T06:19:28.723Z,14.37
2018-12-31T06:20:28.700Z,14.49
2018-12-31T06:21:28.689Z,14.49
2018-12-31T06:22:28.678Z,14.43
2018-12-31T06:23:28.779Z,14.48
2018-12-31T06:24:28.659Z,14.44
2018-12-31T06:25:28.648Z,14.51
2018-12-31T06:26:28.637Z,14.55
2018-12-31T06:27:28.628Z,14.59
2018-12-31T06:28:28.639Z,14.56
2018-12-31T06:29:28.709Z,14.61
2018-12-31T06:30:28.597Z,14.56
2018-12-31T06:31:28.582Z,14.58
2018-12-31T06:32:28.570Z,14.58
2018-12-31T06:33:28.559Z,14.58
2018-12-31T06:34:28.553Z,14.63
2018-12-31T06:35:28.860Z,14.67
2018-12-31T06:36:28.531Z,14.71
2018-12-31T06:37:28.519Z,14.74
2018-12-31T06:38:28.505Z,14.71
2018-12-31T06:39:28.496Z,14.78
2018-12-31T06:40:28.680Z,14.68
2018-12-31T06:41:28.745Z,14.77
2018-12-31T06:42:28.466Z,14.82
2018-12-31T06:43:28.450Z,14.73
2018-12-31T06:44:28.442Z,14.77
2018-12-31T06:45:28.434Z,14.67
2018-12-31T06:46:28.424Z,14.85
2018-12-31T06:47:28.515Z,14.79
2018-12-31T06:48:28.401Z,14.81
2018-12-31T06:49:28.388Z,14.85
2018-12-31T06:50:28.381Z,14.86
2018-12-31T06:51:28.367Z,14.79
2018-12-31T06:52:28.357Z,14.92
2018-12-31T06:53:28.443Z,14.87
2018-12-31T06:54:28.336Z,14.81
2018-12-31T06:55:28.326Z,14.93
2018-12-31T06:56:28.313Z,14.86
2018-12-31T06:57:28.304Z,14.96
2018-12-31T06:58:28.298Z,14.94
2018-12-31T06:59:28.614Z,15.00
2018-12-31T07:00:28.270Z,14.97
2018-12-31T07:01:28.259Z,14.90
2018-12-31T07:02:29.036Z,14.90
2018-12-31T07:03:28.239Z,14.93
2018-12-31T07:04:28.230Z,14.97
2018-12-31T07:05:28.318Z,15.00
2018-12-31T07:06:28.212Z,15.00
2018-12-31T07:07:28.194Z,15.04
2018-12-31T07:08:28.185Z,15.02
2018-12-31T07:09:28.175Z,14.99
2018-12-31T07:10:28.162Z,15.04
2018-12-31T07:11:28.248Z,15.14
2018-12-31T07:12:28.142Z,15.14
2018-12-31T07:13:29.434Z,15.05
2018-12-31T07:14:28.117Z,15.12
2018-12-31T07:15:28.109Z,15.12
2018-12-31T07:16:28.094Z,15.08
2018-12-31T07:17:28.257Z,15.11
2018-12-31T07:18:28.072Z,15.10
2018-12-31T07:19:28.067Z,15.10
2018-12-31T07:20:28.057Z,15.10
2018-12-31T07:21:28.044Z,15.14
2018-12-31T07:22:28.033Z,15.25
2018-12-31T07:23:28.186Z,15.22
2018-12-31T07:24:28.011Z,15.19
2018-12-31T07:25:27.998Z,15.22
2018-12-31T07:26:27.989Z,15.19
2018-12-31T07:27:27.987Z,15.26
2018-12-31T07:28:27.968Z,15.32
2018-12-31T07:29:28.055Z,15.29
2018-12-31T07:30:27.946Z,15.29
2018-12-31T07:31:27.935Z,15.29
2018-12-31T07:32:27.924Z,15.25
2018-12-31T07:33:27.914Z,15.33
2018-12-31T07:34:27.906Z,15.35
2018-12-31T07:35:28.086Z,15.39
2018-12-31T07:36:27.882Z,15.37
2018-12-31T07:37:27.875Z,15.43
2018-12-31T07:38:27.861Z,15.45
2018-12-31T07:39:27.849Z,15.45
2018-12-31T07:40:27.834Z,15.41
2018-12-31T07:41:27.918Z,15.48
2018-12-31T07:42:27.819Z,15.44
2018-12-31T07:43:27.802Z,15.51
2018-12-31T07:44:27.794Z,15.55
2018-12-31T07:45:27.787Z,15.52
2018-12-31T07:46:27.780Z,15.47
2018-12-31T07:47:27.929Z,15.50
2018-12-31T07:48:27.754Z,15.60
2018-12-31T07:49:27.739Z,15.54
2018-12-31T07:50:28.291Z,15.55
2018-12-31T07:51:27.717Z,15.57
2018-12-31T07:52:27.713Z,15.60
2018-12-31T07:53:27.797Z,15.50
2018-12-31T07:54:27.696Z,15.52
2018-12-31T07:55:27.673Z,15.54
2018-12-31T07:56:27.664Z,15.62
2018-12-31T07:57:27.662Z,15.62
2018-12-31T07:58:27.650Z,15.65
2018-12-31T07:59:27.782Z,15.70
2018-12-31T08:00:27.622Z,15.66
2018-12-31T08:01:27.620Z,15.73
2018-12-31T08:02:27.601Z,15.69
2018-12-31T08:03:27.587Z,15.67
2018-12-31T08:04:27.590Z,15.75
2018-12-31T08:05:27.667Z,15.78
2018-12-31T08:06:27.553Z,15.78
2018-12-31T08:07:27.546Z,15.81
2018-12-31T08:08:27.538Z,15.81
2018-12-31T08:09:27.531Z,15.76
2018-12-31T08:10:27.515Z,15.83
2018-12-31T08:11:27.611Z,15.81
2018-12-31T08:12:27.506Z,15.81
2018-12-31T08:13:27.496Z,15.78
2018-12-31T08:14:27.478Z,15.80
2018-12-31T08:15:27.462Z,15.84
2018-12-31T08:16:27.456Z,15.83
2018-12-31T08:17:27.670Z,15.78
2018-12-31T08:18:27.443Z,15.81
2018-12-31T08:19:27.416Z,15.90
2018-12-31T08:20:27.405Z,15.81
2018-12-31T08:21:27.395Z,15.91
2018-12-31T08:22:28.033Z,15.87
2018-12-31T08:23:27.474Z,15.84
2018-12-31T08:24:27.363Z,15.96
2018-12-31T08:25:27.351Z,15.99
2018-12-31T08:26:27.340Z,15.94
2018-12-31T08:27:27.331Z,15.98
2018-12-31T08:28:27.330Z,15.98
2018-12-31T08:29:28.300Z,15.94
2018-12-31T08:30:27.316Z,15.92
2018-12-31T08:31:27.287Z,15.98
2018-12-31T08:32:27.279Z,15.90
2018-12-31T08:33:27.263Z,15.78
2018-12-31T08:34:27.266Z,15.94
2018-12-31T08:35:27.362Z,15.88
2018-12-31T08:36:27.261Z,15.92
2018-12-31T08:37:27.222Z,15.81
2018-12-31T08:38:27.216Z,16.00
2018-12-31T08:39:27.251Z,15.98
2018-12-31T08:40:27.205Z,16.02
2018-12-31T08:41:27.390Z,16.03
2018-12-31T08:42:27.195Z,15.99
2018-12-31T08:43:27.186Z,15.98
2018-12-31T08:44:27.155Z,16.02
2018-12-31T08:45:27.145Z,15.96
2018-12-31T08:46:27.152Z,15.91
2018-12-31T08:47:27.291Z,15.92
2018-12-31T08:48:27.115Z,16.00
2018-12-31T08:49:27.099Z,15.94
2018-12-31T08:50:27.088Z,16.00
2018-12-31T08:51:27.082Z,15.98
2018-12-31T08:52:27.099Z,16.05
2018-12-31T08:53:27.165Z,15.96
2018-12-31T08:54:27.056Z,15.98
2018-12-31T08:55:27.032Z,15.92
2018-12-31T08:56:27.021Z,16.03
2018-12-31T08:57:27.017Z,16.02
2018-12-31T08:58:27.002Z,16.02
2018-12-31T08:59:27.096Z,16.06
2018-12-31T09:00:26.999Z,16.10
2018-12-31T09:01:26.970Z,16.18
2018-12-31T09:02:26.974Z,16.16
2018-12-31T09:03:26.946Z,16.18
2018-12-31T09:04:26.948Z,16.16
2018-12-31T09:05:27.138Z,16.21
2018-12-31T09:06:26.929Z,16.21
2018-12-31T09:07:26.911Z,16.12
2018-12-31T09:08:26.892Z,16.21
2018-12-31T09:09:26.888Z,16.16
2018-12-31T09:10:26.883Z,16.16
2018-12-31T09:11:26.984Z,16.13
2018-12-31T09:12:26.855Z,16.10
2018-12-31T09:13:26.849Z,16.22
2018-12-31T09:14:26.835Z,16.18
2018-12-31T09:15:26.820Z,16.18
2018-12-31T09:16:26.821Z,16.13
2018-12-31T09:17:26.900Z,16.13
2018-12-31T09:18:26.783Z,16.21
2018-12-31T09:19:26.775Z,16.25
2018-12-31T09:20:28.396Z,16.22
2018-12-31T09:21:26.755Z,16.24
2018-12-31T09:22:26.748Z,16.25
2018-12-31T09:23:27.009Z,16.28
2018-12-31T09:24:26.732Z,16.31
2018-12-31T09:25:26.710Z,16.28
2018-12-31T09:26:26.707Z,16.34
2018-12-31T09:27:26.688Z,16.26
2018-12-31T09:28:26.680Z,16.34
2018-12-31T09:29:26.842Z,16.34
2018-12-31T09:30:26.673Z,16.41
2018-12-31T09:31:26.641Z,16.37
2018-12-31T09:32:26.711Z,16.34
2018-12-31T09:33:26.620Z,16.34
2018-12-31T09:34:26.614Z,16.36
2018-12-31T09:35:26.707Z,16.43
2018-12-31T09:36:26.652Z,16.37
2018-12-31T09:37:26.584Z,16.40
2018-12-31T09:38:26.567Z,16.34
2018-12-31T09:39:26.565Z,16.31
2018-12-31T09:40:26.554Z,16.32
2018-12-31T09:41:26.740Z,16.50
2018-12-31T09:42:26.528Z,16.47
2018-12-31T09:43:26.513Z,16.49
2018-12-31T09:44:26.503Z,16.46
2018-12-31T09:45:26.498Z,16.49
2018-12-31T09:46:26.492Z,16.61
2018-12-31T09:47:26.598Z,16.57
2018-12-31T09:48:26.463Z,16.64
2018-12-31T09:49:26.451Z,16.64
2018-12-31T09:50:26.437Z,16.66
2018-12-31T09:51:26.429Z,16.76
2018-12-31T09:52:26.429Z,16.73
2018-12-31T09:53:26.504Z,16.72
2018-12-31T09:54:26.393Z,16.73
2018-12-31T09:55:26.382Z,16.77
2018-12-31T09:56:26.374Z,16.69
2018-12-31T09:57:26.364Z,16.79
2018-12-31T09:58:27.135Z,16.76
2018-12-31T09:59:26.621Z,16.80
2018-12-31T10:00:26.337Z,16.79
2018-12-31T10:01:35.080Z,16.79
2018-12-31T10:02:26.302Z,16.80
2018-12-31T10:03:26.296Z,16.79
2018-12-31T10:04:26.288Z,16.87
2018-12-31T10:05:26.478Z,16.84
2018-12-31T10:06:26.259Z,16.89
2018-12-31T10:07:26.247Z,16.94
2018-12-31T10:08:26.238Z,16.99
2018-12-31T10:09:26.231Z,16.99
2018-12-31T10:10:26.218Z,16.98
2018-12-31T10:11:26.354Z,17.01
2018-12-31T10:12:26.200Z,16.94
2018-12-31T10:13:26.195Z,17.05
2018-12-31T10:14:26.173Z,16.94
2018-12-31T10:15:26.162Z,17.05
2018-12-31T10:16:26.157Z,17.01
2018-12-31T10:17:26.304Z,17.04
2018-12-31T10:18:26.130Z,17.10
2018-12-31T10:19:26.120Z,17.07
2018-12-31T10:20:26.117Z,17.05
2018-12-31T10:21:26.101Z,17.05
2018-12-31T10:22:26.098Z,17.07
2018-12-31T10:23:26.282Z,17.07
2018-12-31T10:24:26.073Z,17.10
2018-12-31T10:25:26.058Z,17.10
2018-12-31T10:26:26.052Z,17.22
2018-12-31T10:27:26.676Z,17.22
2018-12-31T10:28:26.030Z,17.17
2018-12-31T10:29:26.296Z,17.19
2018-12-31T10:30:26.016Z,17.20
2018-12-31T10:31:26.001Z,17.19
2018-12-31T10:32:25.984Z,17.24
2018-12-31T10:33:25.983Z,17.24
2018-12-31T10:34:25.963Z,17.28
2018-12-31T10:35:26.140Z,17.19
2018-12-31T10:36:25.947Z,17.22
2018-12-31T10:37:25.933Z,17.31
2018-12-31T10:38:25.915Z,17.37
2018-12-31T10:39:25.944Z,17.32
2018-12-31T10:40:25.900Z,17.27
2018-12-31T10:41:26.052Z,17.30
2018-12-31T10:42:25.870Z,17.35
2018-12-31T10:43:25.868Z,17.31
2018-12-31T10:44:25.853Z,17.27
2018-12-31T10:45:25.850Z,17.37
2018-12-31T10:46:25.833Z,17.22
2018-12-31T10:47:25.932Z,17.27
2018-12-31T10:48:25.819Z,17.24
2018-12-31T10:49:25.805Z,17.17
2018-12-31T10:50:25.793Z,17.23
2018-12-31T10:51:26.665Z,17.17
2018-12-31T10:52:25.769Z,17.14
2018-12-31T10:53:25.879Z,17.19
2018-12-31T10:54:25.745Z,17.14
2018-12-31T10:55:25.738Z,17.04
2018-12-31T10:56:25.723Z,17.07
2018-12-31T10:57:25.712Z,17.04
2018-12-31T10:58:25.718Z,17.13
2018-12-31T10:59:25.873Z,17.10
2018-12-31T11:00:25.703Z,17.07
2018-12-31T11:01:25.673Z,17.19
2018-12-31T11:02:25.666Z,17.17
2018-12-31T11:03:25.658Z,17.05
2018-12-31T11:04:25.642Z,17.10
2018-12-31T11:05:25.806Z,17.05
2018-12-31T11:06:25.635Z,17.12
2018-12-31T11:07:25.612Z,17.12
2018-12-31T11:08:25.598Z,17.10
2018-12-31T11:09:26.189Z,17.19
2018-12-31T11:10:25.576Z,17.13
2018-12-31T11:11:25.676Z,17.17
2018-12-31T11:12:25.557Z,17.14
2018-12-31T11:13:25.539Z,17.20
2018-12-31T11:14:25.541Z,17.19
2018-12-31T11:15:25.519Z,17.17
2018-12-31T11:16:25.514Z,17.23
2018-12-31T11:17:25.930Z,17.19
2018-12-31T11:18:25.488Z,17.22
2018-12-31T11:19:25.474Z,17.22
2018-12-31T11:20:25.463Z,17.14
2018-12-31T11:21:25.451Z,17.14
2018-12-31T11:22:25.444Z,17.10
2018-12-31T11:23:25.593Z,17.13
2018-12-31T11:24:25.417Z,17.20
2018-12-31T11:25:25.410Z,17.20
2018-12-31T11:26:25.404Z,17.17
2018-12-31T11:27:25.384Z,17.17
2018-12-31T11:28:25.380Z,17.22
2018-12-31T11:29:25.462Z,17.23
2018-12-31T11:30:25.357Z,17.20
2018-12-31T11:31:30.301Z,17.23
2018-12-31T11:32:26.334Z,17.22
2018-12-31T11:33:25.323Z,17.19
2018-12-31T11:34:25.387Z,17.16
2018-12-31T11:35:25.612Z,17.20
2018-12-31T11:36:25.302Z,17.16
2018-12-31T11:37:25.279Z,17.22
2018-12-31T11:38:25.272Z,17.22
2018-12-31T11:39:25.255Z,17.19
2018-12-31T11:40:25.246Z,17.22
2018-12-31T11:41:25.343Z,17.19
2018-12-31T11:42:25.223Z,17.23
2018-12-31T11:43:25.212Z,17.22
2018-12-31T11:44:25.201Z,17.17
2018-12-31T11:45:25.191Z,17.17
2018-12-31T11:46:25.183Z,17.24
2018-12-31T11:47:25.268Z,17.28
2018-12-31T11:48:25.166Z,17.24
2018-12-31T11:49:25.146Z,17.28
2018-12-31T11:50:25.135Z,17.24
2018-12-31T11:51:25.127Z,17.32
2018-12-31T11:52:25.116Z,17.34
2018-12-31T11:53:25.516Z,17.32
2018-12-31T11:54:25.102Z,17.30
2018-12-31T11:55:25.082Z,17.37
2018-12-31T11:56:25.085Z,17.37
2018-12-31T11:57:25.062Z,17.37
2018-12-31T11:58:25.050Z,17.37
2018-12-31T11:59:25.344Z,17.39
2018-12-31T12:00:25.028Z,17.35
2018-12-31T12:01:25.018Z,17.39
2018-12-31T12:02:25.008Z,17.41
2018-12-31T12:03:24.996Z,17.42
2018-12-31T12:04:24.986Z,17.38
2018-12-31T12:05:25.104Z,17.39
2018-12-31T12:06:24.969Z,17.38
2018-12-31T12:07:24.954Z,17.39
2018-12-31T12:08:24.960Z,17.32
2018-12-31T12:09:24.931Z,17.41
2018-12-31T12:10:24.940Z,17.31
2018-12-31T12:11:25.083Z,17.35
2018-12-31T12:12:24.907Z,17.39
2018-12-31T12:13:24.892Z,17.39
2018-12-31T12:14:24.882Z,17.46
2018-12-31T12:15:24.875Z,17.39
2018-12-31T12:16:24.872Z,17.41
2018-12-31T12:17:25.029Z,17.44
2018-12-31T12:18:24.841Z,17.41
2018-12-31T12:19:24.836Z,17.41
2018-12-31T12:20:24.828Z,17.38
2018-12-31T12:21:24.813Z,17.46
2018-12-31T12:22:24.811Z,17.39
2018-12-31T12:23:24.903Z,17.47
2018-12-31T12:24:24.774Z,17.32
2018-12-31T12:25:24.769Z,17.42
2018-12-31T12:26:24.752Z,17.38
2018-12-31T12:27:24.741Z,17.37
2018-12-31T12:28:24.735Z,17.41
2018-12-31T12:29:24.889Z,17.42
2018-12-31T12:30:24.712Z,17.42
2018-12-31T12:31:24.699Z,17.35
2018-12-31T12:32:24.691Z,17.41
2018-12-31T12:33:24.679Z,17.41
2018-12-31T12:34:24.671Z,17.38
2018-12-31T12:35:24.847Z,17.42
2018-12-31T12:36:24.645Z,17.44
2018-12-31T12:37:24.639Z,17.38
2018-12-31T12:38:24.626Z,17.44
2018-12-31T12:39:24.610Z,17.50
2018-12-31T12:40:24.600Z,17.47
2018-12-31T12:41:24.694Z,17.47
2018-12-31T12:42:24.578Z,17.52
2018-12-31T12:43:24.564Z,17.49
2018-12-31T12:44:24.571Z,17.47
2018-12-31T12:45:24.555Z,17.56
2018-12-31T12:46:24.544Z,17.50
2018-12-31T12:47:24.751Z,17.54
2018-12-31T12:48:24.512Z,17.63
2018-12-31T12:49:24.506Z,17.53
2018-12-31T12:50:24.497Z,17.54
2018-12-31T12:51:24.481Z,17.63
2018-12-31T12:52:24.474Z,17.60